sensor_id;sensor_type;location;lat;lon;timestamp;temperature;humidity
3566;DHT22;1797;51.844;7.684;2023-02-13T00:00:30;7.90;99.90
3566;DHT22;1797;51.844;7.684;2023-02-13T00:02:56;7.80;1.00
3566;DHT22;1797;51.844;7.684;2023-02-13T00:05:22;7.80;1.00
3566;DHT22;1797;51.844;7.684;2023-02-13T00:07:47;7.80;1.00
3566;DHT22;1797;51.844;7.684;2023-02-13T00:10:13;7.80;1.00
3566;DHT22;1797;51.844;7.684;2023-02-13T00:12:39;7.80;1.00
3566;DHT22;1797;51.844;7.684;2023-02-13T00:15:05;7.80;1.00
3566;DHT22;1797;51.844;7.684;2023-02-13T00:17:31;7.80;1.00
3566;DHT22;1797;51.844;7.684;2023-02-13T00:19:56;7.80;1.00
3566;DHT22;1797;51.844;7.684;2023-02-13T00:22:22;7.80;1.00
3566;DHT22;1797;51.844;7.684;2023-02-13T00:24:49;7.70;99.90
3566;DHT22;1797;51.844;7.684;2023-02-13T00:27:14;7.70;99.90
3566;DHT22;1797;51.844;7.684;2023-02-13T00:29:40;7.70;99.90
3566;DHT22;1797;51.844;7.684;2023-02-13T00:32:06;7.80;99.90
3566;DHT22;1797;51.844;7.684;2023-02-13T00:34:31;7.80;22.00
3566;DHT22;1797;51.844;7.684;2023-02-13T00:36:57;7.80;1.00
3566;DHT22;1797;51.844;7.684;2023-02-13T00:39:23;7.80;99.90
3566;DHT22;1797;51.844;7.684;2023-02-13T00:41:48;7.80;99.90
3566;DHT22;1797;51.844;7.684;2023-02-13T00:44:14;7.70;99.90
3566;DHT22;1797;51.844;7.684;2023-02-13T00:46:39;7.70;1.00
3566;DHT22;1797;51.844;7.684;2023-02-13T00:49:06;7.70;1.00
3566;DHT22;1797;51.844;7.684;2023-02-13T00:51:31;7.70;1.00
3566;DHT22;1797;51.844;7.684;2023-02-13T00:53:57;7.70;1.00
3566;DHT22;1797;51.844;7.684;2023-02-13T00:56:23;7.70;37.00
3566;DHT22;1797;51.844;7.684;2023-02-13T00:58:48;7.70;1.00
3566;DHT22;1797;51.844;7.684;2023-02-13T01:01:14;7.70;3.70
3566;DHT22;1797;51.844;7.684;2023-02-13T01:03:40;7.70;99.90
3566;DHT22;1797;51.844;7.684;2023-02-13T01:06:06;7.70;99.90
3566;DHT22;1797;51.844;7.684;2023-02-13T01:08:32;7.70;1.00
3566;DHT22;1797;51.844;7.684;2023-02-13T01:10:57;7.70;16.30
3566;DHT22;1797;51.844;7.684;2023-02-13T01:13:24;7.70;99.90
3566;DHT22;1797;51.844;7.684;2023-02-13T01:15:50;7.70;99.90
3566;DHT22;1797;51.844;7.684;2023-02-13T01:18:18;7.60;1.00
3566;DHT22;1797;51.844;7.684;2023-02-13T01:20:44;7.60;1.00
3566;DHT22;1797;51.844;7.684;2023-02-13T01:23:11;7.60;1.00
3566;DHT22;1797;51.844;7.684;2023-02-13T01:25:41;7.60;1.00
3566;DHT22;1797;51.844;7.684;2023-02-13T01:28:07;7.60;99.90
3566;DHT22;1797;51.844;7.684;2023-02-13T01:30:33;7.60;99.90
3566;DHT22;1797;51.844;7.684;2023-02-13T01:32:59;7.60;99.90
3566;DHT22;1797;51.844;7.684;2023-02-13T01:35:25;7.60;1.00
3566;DHT22;1797;51.844;7.684;2023-02-13T01:37:50;7.60;1.00
3566;DHT22;1797;51.844;7.684;2023-02-13T01:40:16;7.60;1.00
3566;DHT22;1797;51.844;7.684;2023-02-13T01:42:42;7.60;1.00
3566;DHT22;1797;51.844;7.684;2023-02-13T01:45:28;7.60;99.90
3566;DHT22;1797;51.844;7.684;2023-02-13T01:50:42;7.60;1.00
3566;DHT22;1797;51.844;7.684;2023-02-13T01:53:19;7.50;1.00
3566;DHT22;1797;51.844;7.684;2023-02-13T01:55:49;7.50;99.90
3566;DHT22;1797;51.844;7.684;2023-02-13T01:58:21;7.60;99.90
3566;DHT22;1797;51.844;7.684;2023-02-13T02:00:47;7.50;99.90
3566;DHT22;1797;51.844;7.684;2023-02-13T02:03:22;7.50;1.00
3566;DHT22;1797;51.844;7.684;2023-02-13T02:05:50;7.50;1.00
3566;DHT22;1797;51.844;7.684;2023-02-13T02:08:17;7.50;65.00
3566;DHT22;1797;51.844;7.684;2023-02-13T02:10:43;7.50;49.20
3566;DHT22;1797;51.844;7.684;2023-02-13T02:13:12;7.50;1.00
3566;DHT22;1797;51.844;7.684;2023-02-13T02:15:39;7.50;1.00
3566;DHT22;1797;51.844;7.684;2023-02-13T02:18:16;7.50;1.00
3566;DHT22;1797;51.844;7.684;2023-02-13T02:29:46;7.40;99.90
3566;DHT22;1797;51.844;7.684;2023-02-13T02:35:26;7.40;1.00
3566;DHT22;1797;51.844;7.684;2023-02-13T02:41:06;7.40;1.00
3566;DHT22;1797;51.844;7.684;2023-02-13T02:43:57;7.30;1.00
3566;DHT22;1797;51.844;7.684;2023-02-13T02:49:06;7.30;1.00
3566;DHT22;1797;51.844;7.684;2023-02-13T02:52:17;7.30;1.00
3566;DHT22;1797;51.844;7.684;2023-02-13T02:54:49;7.30;1.00
3566;DHT22;1797;51.844;7.684;2023-02-13T02:57:32;7.30;1.00
3566;DHT22;1797;51.844;7.684;2023-02-13T03:00:19;7.30;1.00
3566;DHT22;1797;51.844;7.684;2023-02-13T03:03:08;7.30;1.00
3566;DHT22;1797;51.844;7.684;2023-02-13T03:05:55;7.30;1.00
3566;DHT22;1797;51.844;7.684;2023-02-13T03:08:37;7.30;1.00
3566;DHT22;1797;51.844;7.684;2023-02-13T03:11:23;7.30;1.00
3566;DHT22;1797;51.844;7.684;2023-02-13T03:14:09;7.30;1.00
3566;DHT22;1797;51.844;7.684;2023-02-13T03:16:35;7.30;1.00
3566;DHT22;1797;51.844;7.684;2023-02-13T03:22:41;7.30;1.00
3566;DHT22;1797;51.844;7.684;2023-02-13T03:27:56;7.30;1.00
3566;DHT22;1797;51.844;7.684;2023-02-13T03:30:55;7.30;1.00
3566;DHT22;1797;51.844;7.684;2023-02-13T03:34:02;7.30;1.00
3566;DHT22;1797;51.844;7.684;2023-02-13T03:39:58;7.30;1.10
3566;DHT22;1797;51.844;7.684;2023-02-13T03:42:37;7.30;17.30
3566;DHT22;1797;51.844;7.684;2023-02-13T03:45:16;7.30;14.90
3566;DHT22;1797;51.844;7.684;2023-02-13T03:48:03;7.30;23.80
3566;DHT22;1797;51.844;7.684;2023-02-13T03:50:36;7.30;20.60
3566;DHT22;1797;51.844;7.684;2023-02-13T03:53:09;7.30;38.70
3566;DHT22;1797;51.844;7.684;2023-02-13T03:55:39;7.20;93.40
3566;DHT22;1797;51.844;7.684;2023-02-13T03:58:33;7.20;99.90
3566;DHT22;1797;51.844;7.684;2023-02-13T04:01:21;7.20;99.90
3566;DHT22;1797;51.844;7.684;2023-02-13T04:03:50;7.20;99.90
3566;DHT22;1797;51.844;7.684;2023-02-13T04:06:24;7.20;99.90
3566;DHT22;1797;51.844;7.684;2023-02-13T04:08:51;7.20;99.90
3566;DHT22;1797;51.844;7.684;2023-02-13T04:11:24;7.20;99.90
3566;DHT22;1797;51.844;7.684;2023-02-13T04:14:00;7.20;99.90
3566;DHT22;1797;51.844;7.684;2023-02-13T04:18:59;7.20;99.90
3566;DHT22;1797;51.844;7.684;2023-02-13T04:21:25;7.20;99.90
3566;DHT22;1797;51.844;7.684;2023-02-13T04:23:51;7.20;99.90
3566;DHT22;1797;51.844;7.684;2023-02-13T04:26:19;7.20;99.90
3566;DHT22;1797;51.844;7.684;2023-02-13T04:28:45;7.20;99.90
3566;DHT22;1797;51.844;7.684;2023-02-13T04:31:11;7.20;99.90
3566;DHT22;1797;51.844;7.684;2023-02-13T04:33:37;7.20;99.90
3566;DHT22;1797;51.844;7.684;2023-02-13T04:36:03;7.20;99.90
3566;DHT22;1797;51.844;7.684;2023-02-13T04:38:28;7.20;99.90
3566;DHT22;1797;51.844;7.684;2023-02-13T04:40:54;7.20;99.90
3566;DHT22;1797;51.844;7.684;2023-02-13T04:43:20;7.20;99.90
3566;DHT22;1797;51.844;7.684;2023-02-13T04:45:49;7.20;99.90
3566;DHT22;1797;51.844;7.684;2023-02-13T04:48:15;7.10;99.90
3566;DHT22;1797;51.844;7.684;2023-02-13T04:50:40;7.10;99.90
3566;DHT22;1797;51.844;7.684;2023-02-13T04:53:06;7.10;99.90
3566;DHT22;1797;51.844;7.684;2023-02-13T04:55:32;7.10;99.90
3566;DHT22;1797;51.844;7.684;2023-02-13T04:57:57;7.10;99.90
3566;DHT22;1797;51.844;7.684;2023-02-13T05:00:25;7.10;99.90
3566;DHT22;1797;51.844;7.684;2023-02-13T05:02:51;7.10;99.90
3566;DHT22;1797;51.844;7.684;2023-02-13T05:05:18;7.10;99.90
3566;DHT22;1797;51.844;7.684;2023-02-13T05:07:43;7.00;99.90
3566;DHT22;1797;51.844;7.684;2023-02-13T05:10:10;7.00;99.90
3566;DHT22;1797;51.844;7.684;2023-02-13T05:12:36;7.00;99.90
3566;DHT22;1797;51.844;7.684;2023-02-13T05:15:03;7.00;99.90
3566;DHT22;1797;51.844;7.684;2023-02-13T05:17:28;7.00;99.90
3566;DHT22;1797;51.844;7.684;2023-02-13T05:19:54;7.00;99.90
3566;DHT22;1797;51.844;7.684;2023-02-13T05:22:19;7.00;99.90
3566;DHT22;1797;51.844;7.684;2023-02-13T05:25:03;7.00;99.90
3566;DHT22;1797;51.844;7.684;2023-02-13T05:27:29;7.00;99.90
3566;DHT22;1797;51.844;7.684;2023-02-13T05:29:55;7.00;99.90
3566;DHT22;1797;51.844;7.684;2023-02-13T05:32:20;7.00;99.90
3566;DHT22;1797;51.844;7.684;2023-02-13T05:34:46;7.00;99.90
3566;DHT22;1797;51.844;7.684;2023-02-13T05:37:11;7.00;99.90
3566;DHT22;1797;51.844;7.684;2023-02-13T05:39:37;7.00;99.90
3566;DHT22;1797;51.844;7.684;2023-02-13T05:42:03;7.00;99.90
3566;DHT22;1797;51.844;7.684;2023-02-13T05:44:29;7.00;99.90
3566;DHT22;1797;51.844;7.684;2023-02-13T05:46:55;7.00;99.90
3566;DHT22;1797;51.844;7.684;2023-02-13T05:49:20;7.00;99.90
3566;DHT22;1797;51.844;7.684;2023-02-13T05:51:47;7.00;99.90
3566;DHT22;1797;51.844;7.684;2023-02-13T05:54:13;7.00;99.90
3566;DHT22;1797;51.844;7.684;2023-02-13T05:56:39;7.00;99.90
3566;DHT22;1797;51.844;7.684;2023-02-13T05:59:05;7.00;99.90
3566;DHT22;1797;51.844;7.684;2023-02-13T06:01:31;7.00;99.90
3566;DHT22;1797;51.844;7.684;2023-02-13T06:03:57;7.00;99.90
3566;DHT22;1797;51.844;7.684;2023-02-13T06:06:22;7.00;99.90
3566;DHT22;1797;51.844;7.684;2023-02-13T06:08:49;7.00;99.90
3566;DHT22;1797;51.844;7.684;2023-02-13T06:11:15;7.00;99.90
3566;DHT22;1797;51.844;7.684;2023-02-13T06:13:41;7.00;99.90
3566;DHT22;1797;51.844;7.684;2023-02-13T06:16:07;7.00;99.90
3566;DHT22;1797;51.844;7.684;2023-02-13T06:18:33;7.00;99.90
3566;DHT22;1797;51.844;7.684;2023-02-13T06:20:59;7.00;99.90
3566;DHT22;1797;51.844;7.684;2023-02-13T06:23:25;7.00;99.90
3566;DHT22;1797;51.844;7.684;2023-02-13T06:25:51;7.00;99.90
3566;DHT22;1797;51.844;7.684;2023-02-13T06:28:16;7.00;99.90
3566;DHT22;1797;51.844;7.684;2023-02-13T06:33:12;6.90;99.90
3566;DHT22;1797;51.844;7.684;2023-02-13T06:35:38;6.90;99.90
3566;DHT22;1797;51.844;7.684;2023-02-13T06:38:03;6.90;99.90
3566;DHT22;1797;51.844;7.684;2023-02-13T06:40:29;6.90;99.90
3566;DHT22;1797;51.844;7.684;2023-02-13T06:42:54;6.90;99.90
3566;DHT22;1797;51.844;7.684;2023-02-13T06:45:20;6.90;99.90
3566;DHT22;1797;51.844;7.684;2023-02-13T06:47:47;6.90;99.90
3566;DHT22;1797;51.844;7.684;2023-02-13T06:50:14;7.00;99.90
3566;DHT22;1797;51.844;7.684;2023-02-13T06:52:47;7.00;99.90
3566;DHT22;1797;51.844;7.684;2023-02-13T06:55:13;7.00;99.90
3566;DHT22;1797;51.844;7.684;2023-02-13T06:57:40;7.00;99.90
3566;DHT22;1797;51.844;7.684;2023-02-13T07:00:06;7.00;99.90
3566;DHT22;1797;51.844;7.684;2023-02-13T07:02:32;7.00;99.90
3566;DHT22;1797;51.844;7.684;2023-02-13T07:04:58;7.00;99.90
3566;DHT22;1797;51.844;7.684;2023-02-13T07:07:23;7.00;99.90
3566;DHT22;1797;51.844;7.684;2023-02-13T07:09:49;7.00;99.90
3566;DHT22;1797;51.844;7.684;2023-02-13T07:12:15;7.00;99.90
3566;DHT22;1797;51.844;7.684;2023-02-13T07:14:41;7.00;99.90
3566;DHT22;1797;51.844;7.684;2023-02-13T07:17:07;7.00;99.90
3566;DHT22;1797;51.844;7.684;2023-02-13T07:19:32;7.00;99.90
3566;DHT22;1797;51.844;7.684;2023-02-13T07:21:58;7.00;99.90
3566;DHT22;1797;51.844;7.684;2023-02-13T07:24:23;7.00;99.90
3566;DHT22;1797;51.844;7.684;2023-02-13T07:26:49;7.00;99.90
3566;DHT22;1797;51.844;7.684;2023-02-13T07:29:15;7.00;99.90
3566;DHT22;1797;51.844;7.684;2023-02-13T07:31:40;7.00;99.90
3566;DHT22;1797;51.844;7.684;2023-02-13T07:34:06;7.00;99.90
3566;DHT22;1797;51.844;7.684;2023-02-13T07:36:32;7.00;99.90
3566;DHT22;1797;51.844;7.684;2023-02-13T07:38:58;7.10;99.90
3566;DHT22;1797;51.844;7.684;2023-02-13T07:41:23;7.00;99.90
3566;DHT22;1797;51.844;7.684;2023-02-13T07:43:52;7.00;92.20
3566;DHT22;1797;51.844;7.684;2023-02-13T07:46:18;7.10;68.00
3566;DHT22;1797;51.844;7.684;2023-02-13T07:48:44;7.10;36.80
3566;DHT22;1797;51.844;7.684;2023-02-13T07:51:09;7.20;20.00
3566;DHT22;1797;51.844;7.684;2023-02-13T07:53:35;7.10;1.00
3566;DHT22;1797;51.844;7.684;2023-02-13T07:56:08;7.20;1.00
3566;DHT22;1797;51.844;7.684;2023-02-13T07:58:35;7.30;1.00
3566;DHT22;1797;51.844;7.684;2023-02-13T08:01:08;7.30;1.00
3566;DHT22;1797;51.844;7.684;2023-02-13T08:03:34;7.30;99.90
3566;DHT22;1797;51.844;7.684;2023-02-13T08:06:00;7.40;1.00
3566;DHT22;1797;51.844;7.684;2023-02-13T08:08:26;7.40;1.00
3566;DHT22;1797;51.844;7.684;2023-02-13T08:10:52;7.40;1.00
3566;DHT22;1797;51.844;7.684;2023-02-13T08:13:36;7.50;99.90
3566;DHT22;1797;51.844;7.684;2023-02-13T08:16:02;7.50;1.00
3566;DHT22;1797;51.844;7.684;2023-02-13T08:18:28;7.60;1.00
3566;DHT22;1797;51.844;7.684;2023-02-13T08:20:53;7.60;1.00
3566;DHT22;1797;51.844;7.684;2023-02-13T08:23:19;7.70;99.90
3566;DHT22;1797;51.844;7.684;2023-02-13T08:25:44;7.70;99.90
3566;DHT22;1797;51.844;7.684;2023-02-13T08:28:12;7.80;70.90
3566;DHT22;1797;51.844;7.684;2023-02-13T08:30:38;7.80;1.00
3566;DHT22;1797;51.844;7.684;2023-02-13T08:33:03;7.90;99.90
3566;DHT22;1797;51.844;7.684;2023-02-13T08:35:29;7.90;1.00
3566;DHT22;1797;51.844;7.684;2023-02-13T08:37:56;7.90;1.00
3566;DHT22;1797;51.844;7.684;2023-02-13T08:40:22;8.00;1.00
3566;DHT22;1797;51.844;7.684;2023-02-13T08:42:47;8.00;1.00
3566;DHT22;1797;51.844;7.684;2023-02-13T08:45:13;8.00;1.00
3566;DHT22;1797;51.844;7.684;2023-02-13T08:47:39;8.00;1.00
3566;DHT22;1797;51.844;7.684;2023-02-13T08:50:05;8.10;1.00
3566;DHT22;1797;51.844;7.684;2023-02-13T08:52:31;8.10;1.00
3566;DHT22;1797;51.844;7.684;2023-02-13T08:54:56;8.20;1.00
3566;DHT22;1797;51.844;7.684;2023-02-13T08:57:22;8.30;1.00
3566;DHT22;1797;51.844;7.684;2023-02-13T08:59:47;8.40;1.00
3566;DHT22;1797;51.844;7.684;2023-02-13T09:02:13;8.40;99.90
3566;DHT22;1797;51.844;7.684;2023-02-13T09:04:40;8.40;99.90
3566;DHT22;1797;51.844;7.684;2023-02-13T09:07:06;8.50;99.90
3566;DHT22;1797;51.844;7.684;2023-02-13T09:09:31;8.50;99.90
3566;DHT22;1797;51.844;7.684;2023-02-13T09:11:57;8.60;98.70
3566;DHT22;1797;51.844;7.684;2023-02-13T09:14:23;8.60;90.20
3566;DHT22;1797;51.844;7.684;2023-02-13T09:16:49;8.60;99.90
3566;DHT22;1797;51.844;7.684;2023-02-13T09:19:14;8.60;1.00
3566;DHT22;1797;51.844;7.684;2023-02-13T09:21:40;8.60;1.00
3566;DHT22;1797;51.844;7.684;2023-02-13T09:24:07;8.70;24.00
3566;DHT22;1797;51.844;7.684;2023-02-13T09:26:33;8.70;50.10
3566;DHT22;1797;51.844;7.684;2023-02-13T09:28:59;8.80;1.00
3566;DHT22;1797;51.844;7.684;2023-02-13T09:31:24;8.90;1.00
3566;DHT22;1797;51.844;7.684;2023-02-13T09:33:50;8.90;1.00
3566;DHT22;1797;51.844;7.684;2023-02-13T09:36:21;9.00;1.00
3566;DHT22;1797;51.844;7.684;2023-02-13T09:38:52;9.00;1.00
3566;DHT22;1797;51.844;7.684;2023-02-13T09:41:38;9.10;1.00
3566;DHT22;1797;51.844;7.684;2023-02-13T09:44:18;9.20;1.00
3566;DHT22;1797;51.844;7.684;2023-02-13T09:47:13;9.30;1.00
3566;DHT22;1797;51.844;7.684;2023-02-13T09:49:47;9.40;1.00
3566;DHT22;1797;51.844;7.684;2023-02-13T09:52:13;9.50;99.90
3566;DHT22;1797;51.844;7.684;2023-02-13T09:54:39;9.50;99.90
3566;DHT22;1797;51.844;7.684;2023-02-13T09:57:24;9.50;99.90
3566;DHT22;1797;51.844;7.684;2023-02-13T10:00:16;9.60;99.90
3566;DHT22;1797;51.844;7.684;2023-02-13T10:12:55;10.00;99.90
3566;DHT22;1797;51.844;7.684;2023-02-13T10:15:24;10.10;99.90
3566;DHT22;1797;51.844;7.684;2023-02-13T10:18:00;10.00;91.40
3566;DHT22;1797;51.844;7.684;2023-02-13T10:20:46;10.00;99.90
3566;DHT22;1797;51.844;7.684;2023-02-13T10:23:21;10.00;99.90
3566;DHT22;1797;51.844;7.684;2023-02-13T10:25:54;10.10;99.90
3566;DHT22;1797;51.844;7.684;2023-02-13T10:31:38;10.30;56.00
3566;DHT22;1797;51.844;7.684;2023-02-13T10:34:11;10.40;32.00
3566;DHT22;1797;51.844;7.684;2023-02-13T10:36:43;10.40;22.20
3566;DHT22;1797;51.844;7.684;2023-02-13T10:39:23;10.50;65.20
3566;DHT22;1797;51.844;7.684;2023-02-13T11:01:17;12.70;1.00
3566;DHT22;1797;51.844;7.684;2023-02-13T11:03:43;12.90;1.00
3566;DHT22;1797;51.844;7.684;2023-02-13T11:06:15;12.90;1.00
3566;DHT22;1797;51.844;7.684;2023-02-13T11:08:45;13.10;1.00
3566;DHT22;1797;51.844;7.684;2023-02-13T11:11:34;13.30;1.00
3566;DHT22;1797;51.844;7.684;2023-02-13T11:16:45;13.60;1.00
3566;DHT22;1797;51.844;7.684;2023-02-13T11:19:50;13.70;1.00
3566;DHT22;1797;51.844;7.684;2023-02-13T11:22:35;13.90;1.00
3566;DHT22;1797;51.844;7.684;2023-02-13T11:25:19;14.00;1.00
3566;DHT22;1797;51.844;7.684;2023-02-13T11:27:47;14.10;1.00
3566;DHT22;1797;51.844;7.684;2023-02-13T11:33:23;14.30;1.00
3566;DHT22;1797;51.844;7.684;2023-02-13T11:36:07;14.20;1.00
3566;DHT22;1797;51.844;7.684;2023-02-13T11:38:34;14.10;1.00
3566;DHT22;1797;51.844;7.684;2023-02-13T11:41:10;14.00;1.00
3566;DHT22;1797;51.844;7.684;2023-02-13T11:43:46;13.90;1.00
3566;DHT22;1797;51.844;7.684;2023-02-13T11:46:19;13.90;1.00
3566;DHT22;1797;51.844;7.684;2023-02-13T11:49:16;13.90;1.00
3566;DHT22;1797;51.844;7.684;2023-02-13T11:51:45;14.10;1.00
3566;DHT22;1797;51.844;7.684;2023-02-13T11:59:41;14.00;1.00
3566;DHT22;1797;51.844;7.684;2023-02-13T12:02:29;14.20;1.00
3566;DHT22;1797;51.844;7.684;2023-02-13T12:05:16;14.20;1.00
3566;DHT22;1797;51.844;7.684;2023-02-13T12:07:43;14.30;1.00
3566;DHT22;1797;51.844;7.684;2023-02-13T12:15:26;14.20;1.00
3566;DHT22;1797;51.844;7.684;2023-02-13T12:23:47;13.90;1.00
3566;DHT22;1797;51.844;7.684;2023-02-13T12:26:36;13.90;1.00
3566;DHT22;1797;51.844;7.684;2023-02-13T12:29:36;13.80;1.00
3566;DHT22;1797;51.844;7.684;2023-02-13T12:32:18;13.80;1.00
3566;DHT22;1797;51.844;7.684;2023-02-13T12:52:56;13.90;1.00
3566;DHT22;1797;51.844;7.684;2023-02-13T12:58:41;13.70;1.00
3566;DHT22;1797;51.844;7.684;2023-02-13T13:01:23;13.70;1.00
3566;DHT22;1797;51.844;7.684;2023-02-13T13:09:34;13.80;1.00
3566;DHT22;1797;51.844;7.684;2023-02-13T13:23:15;13.70;1.00
3566;DHT22;1797;51.844;7.684;2023-02-13T13:26:00;13.60;1.00
3566;DHT22;1797;51.844;7.684;2023-02-13T13:28:38;13.50;1.00
3566;DHT22;1797;51.844;7.684;2023-02-13T13:31:06;13.50;1.00
3566;DHT22;1797;51.844;7.684;2023-02-13T13:33:33;13.40;1.00
3566;DHT22;1797;51.844;7.684;2023-02-13T13:36:02;13.30;1.00
3566;DHT22;1797;51.844;7.684;2023-02-13T13:38:52;13.00;1.00
3566;DHT22;1797;51.844;7.684;2023-02-13T13:51:47;12.10;1.00
3566;DHT22;1797;51.844;7.684;2023-02-13T14:07:39;11.40;1.00
3566;DHT22;1797;51.844;7.684;2023-02-13T14:26:16;11.10;1.00
3566;DHT22;1797;51.844;7.684;2023-02-13T14:31:36;11.10;1.00
3566;DHT22;1797;51.844;7.684;2023-02-13T14:34:16;11.10;1.00
3566;DHT22;1797;51.844;7.684;2023-02-13T14:36:58;11.20;1.00
3566;DHT22;1797;51.844;7.684;2023-02-13T14:39:31;11.10;1.00
3566;DHT22;1797;51.844;7.684;2023-02-13T14:42:00;11.10;1.00
3566;DHT22;1797;51.844;7.684;2023-02-13T14:44:45;11.00;1.00
3566;DHT22;1797;51.844;7.684;2023-02-13T14:47:30;10.90;1.00
3566;DHT22;1797;51.844;7.684;2023-02-13T14:49:57;10.90;1.00
3566;DHT22;1797;51.844;7.684;2023-02-13T14:52:42;10.90;1.00
3566;DHT22;1797;51.844;7.684;2023-02-13T14:55:35;10.90;1.00
3566;DHT22;1797;51.844;7.684;2023-02-13T14:58:20;10.80;15.60
3566;DHT22;1797;51.844;7.684;2023-02-13T15:00:55;10.90;1.00
3566;DHT22;1797;51.844;7.684;2023-02-13T15:03:30;10.90;1.00
3566;DHT22;1797;51.844;7.684;2023-02-13T15:06:03;10.80;1.00
3566;DHT22;1797;51.844;7.684;2023-02-13T15:08:40;10.80;18.60
3566;DHT22;1797;51.844;7.684;2023-02-13T15:11:07;10.70;11.70
3566;DHT22;1797;51.844;7.684;2023-02-13T15:13:52;10.70;81.40
3566;DHT22;1797;51.844;7.684;2023-02-13T15:16:18;10.70;83.10
3566;DHT22;1797;51.844;7.684;2023-02-13T15:18:49;10.60;97.50
3566;DHT22;1797;51.844;7.684;2023-02-13T15:21:21;10.50;99.90
3566;DHT22;1797;51.844;7.684;2023-02-13T15:23:51;10.50;99.90
3566;DHT22;1797;51.844;7.684;2023-02-13T15:26:23;10.50;99.90
3566;DHT22;1797;51.844;7.684;2023-02-13T15:29:18;10.50;99.90
3566;DHT22;1797;51.844;7.684;2023-02-13T15:31:43;10.50;99.90
3566;DHT22;1797;51.844;7.684;2023-02-13T15:34:28;10.50;99.90
3566;DHT22;1797;51.844;7.684;2023-02-13T15:36:54;10.50;99.90
3566;DHT22;1797;51.844;7.684;2023-02-13T15:39:25;10.40;99.90
3566;DHT22;1797;51.844;7.684;2023-02-13T15:41:54;10.40;99.90
3566;DHT22;1797;51.844;7.684;2023-02-13T15:44:29;10.30;99.90
3566;DHT22;1797;51.844;7.684;2023-02-13T15:47:02;10.30;99.90
3566;DHT22;1797;51.844;7.684;2023-02-13T15:49:35;10.20;99.90
3566;DHT22;1797;51.844;7.684;2023-02-13T15:52:05;10.20;99.90
3566;DHT22;1797;51.844;7.684;2023-02-13T15:54:32;10.10;99.90
3566;DHT22;1797;51.844;7.684;2023-02-13T15:57:03;10.00;99.90
3566;DHT22;1797;51.844;7.684;2023-02-13T15:59:37;10.00;99.90
3566;DHT22;1797;51.844;7.684;2023-02-13T16:02:05;9.90;99.90
3566;DHT22;1797;51.844;7.684;2023-02-13T16:04:36;9.80;99.90
3566;DHT22;1797;51.844;7.684;2023-02-13T16:07:02;9.80;99.90
3566;DHT22;1797;51.844;7.684;2023-02-13T16:09:32;9.80;99.90
3566;DHT22;1797;51.844;7.684;2023-02-13T16:12:03;9.80;99.90
3566;DHT22;1797;51.844;7.684;2023-02-13T16:14:31;9.70;99.90
3566;DHT22;1797;51.844;7.684;2023-02-13T16:19:53;9.50;1.00
3566;DHT22;1797;51.844;7.684;2023-02-13T16:28:02;9.30;1.00
3566;DHT22;1797;51.844;7.684;2023-02-13T16:30:44;9.20;1.00
3566;DHT22;1797;51.844;7.684;2023-02-13T16:38:40;9.20;1.00
3566;DHT22;1797;51.844;7.684;2023-02-13T16:41:29;9.10;1.00
3566;DHT22;1797;51.844;7.684;2023-02-13T16:44:00;8.90;1.00
3566;DHT22;1797;51.844;7.684;2023-02-13T16:46:42;8.80;1.00
3566;DHT22;1797;51.844;7.684;2023-02-13T16:49:17;8.70;1.00
3566;DHT22;1797;51.844;7.684;2023-02-13T16:54:28;8.50;1.00
3566;DHT22;1797;51.844;7.684;2023-02-13T17:02:52;8.40;1.00
3566;DHT22;1797;51.844;7.684;2023-02-13T17:05:26;8.40;1.00
3566;DHT22;1797;51.844;7.684;2023-02-13T17:07:54;8.30;1.00
3566;DHT22;1797;51.844;7.684;2023-02-13T17:13:00;8.20;7.20
3566;DHT22;1797;51.844;7.684;2023-02-13T17:15:29;8.10;23.30
3566;DHT22;1797;51.844;7.684;2023-02-13T17:17:55;8.10;1.00
3566;DHT22;1797;51.844;7.684;2023-02-13T17:20:23;8.00;1.00
3566;DHT22;1797;51.844;7.684;2023-02-13T17:22:52;7.90;80.50
3566;DHT22;1797;51.844;7.684;2023-02-13T17:25:31;7.90;99.90
3566;DHT22;1797;51.844;7.684;2023-02-13T17:28:10;7.80;59.50
3566;DHT22;1797;51.844;7.684;2023-02-13T17:30:37;7.70;99.90
3566;DHT22;1797;51.844;7.684;2023-02-13T17:33:05;7.60;99.90
3566;DHT22;1797;51.844;7.684;2023-02-13T17:35:31;7.60;99.90
3566;DHT22;1797;51.844;7.684;2023-02-13T17:37:57;7.60;1.00
3566;DHT22;1797;51.844;7.684;2023-02-13T17:40:24;7.50;1.00
3566;DHT22;1797;51.844;7.684;2023-02-13T17:42:52;7.50;1.00
3566;DHT22;1797;51.844;7.684;2023-02-13T17:45:21;7.50;1.00
3566;DHT22;1797;51.844;7.684;2023-02-13T17:47:47;7.40;1.00
3566;DHT22;1797;51.844;7.684;2023-02-13T17:50:13;7.40;1.00
3566;DHT22;1797;51.844;7.684;2023-02-13T17:52:40;7.30;1.00
3566;DHT22;1797;51.844;7.684;2023-02-13T17:55:15;7.30;1.00
3566;DHT22;1797;51.844;7.684;2023-02-13T17:57:40;7.30;1.00
3566;DHT22;1797;51.844;7.684;2023-02-13T18:00:07;7.20;1.00
3566;DHT22;1797;51.844;7.684;2023-02-13T18:02:33;7.20;1.00
3566;DHT22;1797;51.844;7.684;2023-02-13T18:04:58;7.20;1.00
3566;DHT22;1797;51.844;7.684;2023-02-13T18:07:24;7.20;1.00
3566;DHT22;1797;51.844;7.684;2023-02-13T18:09:52;7.10;1.00
3566;DHT22;1797;51.844;7.684;2023-02-13T18:12:24;7.00;1.00
3566;DHT22;1797;51.844;7.684;2023-02-13T18:14:50;6.90;1.00
3566;DHT22;1797;51.844;7.684;2023-02-13T18:17:17;6.90;1.00
3566;DHT22;1797;51.844;7.684;2023-02-13T18:19:43;6.80;1.00
3566;DHT22;1797;51.844;7.684;2023-02-13T18:22:10;6.70;1.00
3566;DHT22;1797;51.844;7.684;2023-02-13T18:24:38;6.60;1.00
3566;DHT22;1797;51.844;7.684;2023-02-13T18:27:04;6.50;1.00
3566;DHT22;1797;51.844;7.684;2023-02-13T18:29:33;6.40;1.00
3566;DHT22;1797;51.844;7.684;2023-02-13T18:32:02;6.30;1.00
3566;DHT22;1797;51.844;7.684;2023-02-13T18:34:28;6.30;1.00
3566;DHT22;1797;51.844;7.684;2023-02-13T18:36:54;6.20;1.00
3566;DHT22;1797;51.844;7.684;2023-02-13T18:39:19;6.10;1.00
3566;DHT22;1797;51.844;7.684;2023-02-13T18:41:45;6.10;1.00
3566;DHT22;1797;51.844;7.684;2023-02-13T18:44:11;6.00;1.00
3566;DHT22;1797;51.844;7.684;2023-02-13T18:46:36;6.00;1.00
3566;DHT22;1797;51.844;7.684;2023-02-13T18:49:02;5.90;1.00
3566;DHT22;1797;51.844;7.684;2023-02-13T18:51:28;5.80;1.00
3566;DHT22;1797;51.844;7.684;2023-02-13T18:53:54;5.80;1.00
3566;DHT22;1797;51.844;7.684;2023-02-13T18:56:19;5.70;18.70
3566;DHT22;1797;51.844;7.684;2023-02-13T18:58:48;5.70;28.70
3566;DHT22;1797;51.844;7.684;2023-02-13T19:01:16;5.60;1.00
3566;DHT22;1797;51.844;7.684;2023-02-13T19:03:47;5.60;1.00
3566;DHT22;1797;51.844;7.684;2023-02-13T19:06:16;5.60;1.00
3566;DHT22;1797;51.844;7.684;2023-02-13T19:08:43;5.60;99.90
3566;DHT22;1797;51.844;7.684;2023-02-13T19:11:11;5.60;1.00
3566;DHT22;1797;51.844;7.684;2023-02-13T19:13:39;5.50;71.70
3566;DHT22;1797;51.844;7.684;2023-02-13T19:16:06;5.50;99.90
3566;DHT22;1797;51.844;7.684;2023-02-13T19:18:35;5.40;1.00
3566;DHT22;1797;51.844;7.684;2023-02-13T19:21:02;5.30;1.00
3566;DHT22;1797;51.844;7.684;2023-02-13T19:23:28;5.30;99.90
3566;DHT22;1797;51.844;7.684;2023-02-13T19:25:54;5.20;1.00
3566;DHT22;1797;51.844;7.684;2023-02-13T19:28:20;5.10;1.00
3566;DHT22;1797;51.844;7.684;2023-02-13T19:30:45;5.10;1.00
3566;DHT22;1797;51.844;7.684;2023-02-13T19:33:11;5.10;1.00
3566;DHT22;1797;51.844;7.684;2023-02-13T19:35:37;5.00;99.90
3566;DHT22;1797;51.844;7.684;2023-02-13T19:38:02;5.00;99.90
3566;DHT22;1797;51.844;7.684;2023-02-13T19:40:28;4.90;99.90
3566;DHT22;1797;51.844;7.684;2023-02-13T19:42:54;4.90;1.00
3566;DHT22;1797;51.844;7.684;2023-02-13T19:45:20;4.80;1.00
3566;DHT22;1797;51.844;7.684;2023-02-13T19:47:46;4.80;1.00
3566;DHT22;1797;51.844;7.684;2023-02-13T19:50:12;4.70;1.00
3566;DHT22;1797;51.844;7.684;2023-02-13T19:52:37;4.70;1.00
3566;DHT22;1797;51.844;7.684;2023-02-13T19:55:03;4.70;1.00
3566;DHT22;1797;51.844;7.684;2023-02-13T19:57:29;4.60;1.00